Time;durP1;ratioP1;P1;durP2;ratioP2;P2;SDS_P1;SDS_P2;PMS_P1;PMS_P2;Temp;Humidity;BMP_temperature;BMP_pressure;BME280_temperature;BME280_humidity;BME280_pressure;Samples;Min_cycle;Max_cycle;Signal;HPM_P1;HPM_P2
2023/01/16 00:00:11;;;;;;;21.27;6.35;;;;;;;;;;5034378;28;20029;-71
2023/01/16 00:02:37;;;;;;;13.32;4.03;;;;;;;;;;5034360;28;20029;-71
2023/01/16 00:05:03;;;;;;;16.23;3.10;;;;;;;;;;5034252;28;20026;-71
2023/01/16 00:07:30;;;;;;;14.82;3.42;;;;;;;;;;5032917;28;20024;-71
2023/01/16 00:09:56;;;;;;;12.65;3.42;;;;;;;;;;5034033;28;20025;-71
2023/01/16 00:12:22;;;;;;;12.15;3.40;;;;;;;;;;5034073;28;20494;-71
2023/01/16 00:14:48;;;;;;;12.25;3.13;;;;;;;;;;5033921;28;20025;-71
2023/01/16 00:17:15;;;;;;;15.98;3.42;;;;;;;;;;5034191;28;20044;-71
2023/01/16 00:19:41;;;;;;;12.82;3.00;;;;;;;;;;5033975;28;20486;-71
2023/01/16 00:22:07;;;;;;;6.57;2.22;;;;;;;;;;5033901;28;20035;-71
2023/01/16 00:24:33;;;;;;;13.98;3.08;;;;;;;;;;5033842;28;20018;-71
2023/01/16 00:27:00;;;;;;;10.32;2.58;;;;;;;;;;5033669;28;20037;-71
2023/01/16 00:29:26;;;;;;;10.75;2.53;;;;;;;;;;5033892;28;20033;-71
2023/01/16 00:31:52;;;;;;;9.13;2.47;;;;;;;;;;5033795;28;20440;-71
2023/01/16 00:34:19;;;;;;;12.38;2.17;;;;;;;;;;5033912;28;20025;-71
2023/01/16 00:36:45;;;;;;;16.13;2.50;;;;;;;;;;5033298;28;20042;-71
2023/01/16 00:39:11;;;;;;;15.55;2.85;;;;;;;;;;5033629;28;20075;-71
2023/01/16 00:41:38;;;;;;;11.50;2.10;;;;;;;;;;5065311;28;20025;-71
2023/01/16 00:44:04;;;;;;;8.32;1.92;;;;;;;;;;5033581;28;20029;-71
2023/01/16 00:46:30;;;;;;;7.07;2.10;;;;;;;;;;5033759;28;20037;-71
2023/01/16 00:48:57;;;;;;;7.30;1.98;;;;;;;;;;5033225;28;20492;-71
2023/01/16 00:51:23;;;;;;;9.18;2.15;;;;;;;;;;5032811;28;20048;-71
2023/01/16 00:53:50;;;;;;;6.63;1.95;;;;;;;;;;5033286;28;20022;-71
2023/01/16 00:56:16;;;;;;;13.65;2.53;;;;;;;;;;5031959;28;20045;-71
2023/01/16 00:58:42;;;;;;;6.97;1.83;;;;;;;;;;5033399;28;20021;-72
2023/01/16 01:01:09;;;;;;;9.88;2.03;;;;;;;;;;5033054;28;20418;-71
2023/01/16 01:03:36;;;;;;;4.60;1.83;;;;;;;;;;5033383;28;20017;-72
2023/01/16 01:06:05;;;;;;;6.18;2.15;;;;;;;;;;5032802;28;20041;-71
2023/01/16 01:08:32;;;;;;;7.00;2.05;;;;;;;;;;5032051;28;20014;-72
2023/01/16 01:10:58;;;;;;;13.77;1.90;;;;;;;;;;5033048;28;20386;-72
2023/01/16 01:13:24;;;;;;;7.45;2.60;;;;;;;;;;5032982;28;20018;-71
2023/01/16 01:15:50;;;;;;;8.23;2.40;;;;;;;;;;5033080;28;20089;-72
2023/01/16 01:18:17;;;;;;;6.97;1.98;;;;;;;;;;5032892;28;20029;-71
2023/01/16 01:20:43;;;;;;;8.27;1.85;;;;;;;;;;5032578;28;20021;-71
2023/01/16 01:23:09;;;;;;;8.90;3.00;;;;;;;;;;5032888;28;20385;-71
2023/01/16 01:25:38;;;;;;;13.80;5.03;;;;;;;;;;5032775;28;20299;-71
2023/01/16 01:28:04;;;;;;;9.02;2.90;;;;;;;;;;5032892;28;20025;-71
2023/01/16 01:30:31;;;;;;;7.03;2.40;;;;;;;;;;5032631;28;20433;-71
2023/01/16 01:32:57;;;;;;;10.32;2.20;;;;;;;;;;5032870;28;20036;-72
2023/01/16 01:35:23;;;;;;;10.77;2.92;;;;;;;;;;5032258;28;20032;-71
2023/01/16 01:37:50;;;;;;;16.48;2.22;;;;;;;;;;5032413;28;20033;-71
2023/01/16 01:40:16;;;;;;;11.40;2.40;;;;;;;;;;5032696;28;20013;-71
2023/01/16 01:42:43;;;;;;;7.20;2.15;;;;;;;;;;5032552;28;20036;-71
2023/01/16 01:45:12;;;;;;;5.70;1.95;;;;;;;;;;5032418;28;20031;-72
2023/01/16 01:47:40;;;;;;;11.50;2.22;;;;;;;;;;5032581;28;20025;-71
2023/01/16 01:50:19;;;;;;;6.68;2.33;;;;;;;;;;5031876;28;20037;-71
2023/01/16 01:52:45;;;;;;;10.45;2.25;;;;;;;;;;5032082;28;20049;-71
2023/01/16 01:55:13;;;;;;;13.20;2.50;;;;;;;;;;5032267;28;20025;-72
2023/01/16 01:57:42;;;;;;;11.75;3.03;;;;;;;;;;5032165;28;20029;-71
2023/01/16 02:00:10;;;;;;;9.40;3.22;;;;;;;;;;5032384;28;20022;-70
2023/01/16 02:02:40;;;;;;;11.82;2.30;;;;;;;;;;5032490;28;20516;-71
2023/01/16 02:05:07;;;;;;;10.90;2.45;;;;;;;;;;5031893;28;20028;-71
2023/01/16 02:07:34;;;;;;;8.15;2.38;;;;;;;;;;5032007;28;20067;-71
2023/01/16 02:10:10;;;;;;;9.00;2.80;;;;;;;;;;5032168;28;20047;-72
2023/01/16 02:12:36;;;;;;;7.28;2.38;;;;;;;;;;5032456;28;20025;-72
2023/01/16 02:15:03;;;;;;;8.88;2.45;;;;;;;;;;5032193;28;20033;-71
2023/01/16 02:20:17;;;;;;;12.75;2.55;;;;;;;;;;5031593;28;20021;-71
2023/01/16 02:22:46;;;;;;;11.13;3.03;;;;;;;;;;5064267;28;20029;-71
2023/01/16 02:25:15;;;;;;;7.50;2.60;;;;;;;;;;5031972;28;20087;-71
2023/01/16 02:28:04;;;;;;;9.90;2.67;;;;;;;;;;5031610;28;20405;-71
2023/01/16 02:30:36;;;;;;;9.13;2.70;;;;;;;;;;5031963;28;20033;-71
2023/01/16 02:33:08;;;;;;;8.95;2.88;;;;;;;;;;5031515;28;20390;-71
2023/01/16 02:35:43;;;;;;;15.25;2.50;;;;;;;;;;5031989;28;20039;-72
2023/01/16 02:38:15;;;;;;;10.30;2.50;;;;;;;;;;5031777;28;20482;-71
2023/01/16 02:41:11;;;;;;;11.85;2.97;;;;;;;;;;5031816;28;20022;-71
2023/01/16 02:43:43;;;;;;;7.28;2.60;;;;;;;;;;5029535;28;20401;-72
2023/01/16 02:46:18;;;;;;;10.38;2.58;;;;;;;;;;5029636;28;20375;-71
2023/01/16 02:49:11;;;;;;;9.77;2.88;;;;;;;;;;5029151;28;20036;-71
2023/01/16 02:51:37;;;;;;;9.43;2.72;;;;;;;;;;5007917;28;20040;-71
2023/01/16 02:54:10;;;;;;;12.68;2.88;;;;;;;;;;5009818;28;20048;-71
2023/01/16 02:56:57;;;;;;;11.68;3.13;;;;;;;;;;5009592;28;20045;-71
2023/01/16 02:59:25;;;;;;;10.32;3.33;;;;;;;;;;5009732;28;20018;-71
2023/01/16 03:01:51;;;;;;;12.02;3.95;;;;;;;;;;5009383;28;20437;-71
2023/01/16 03:04:36;;;;;;;15.45;5.32;;;;;;;;;;5009931;28;20022;-71
2023/01/16 03:07:06;;;;;;;19.55;6.63;;;;;;;;;;4993491;28;20042;-71
2023/01/16 03:09:43;;;;;;;22.88;8.45;;;;;;;;;;5021805;28;20035;-71
2023/01/16 03:12:12;;;;;;;11.98;4.95;;;;;;;;;;5029432;28;20087;-71
2023/01/16 03:14:44;;;;;;;11.82;3.55;;;;;;;;;;5029552;28;20034;-71
2023/01/16 03:17:22;;;;;;;13.40;3.10;;;;;;;;;;5028957;28;20044;-70
2023/01/16 03:19:54;;;;;;;13.40;2.50;;;;;;;;;;5022270;28;20038;-71
2023/01/16 03:22:40;;;;;;;11.40;2.53;;;;;;;;;;5011842;28;20022;-71
2023/01/16 03:25:29;;;;;;;14.35;2.60;;;;;;;;;;5011850;28;20033;-71
2023/01/16 03:28:07;;;;;;;14.38;2.25;;;;;;;;;;5011710;28;20032;-70
2023/01/16 03:30:48;;;;;;;12.40;2.47;;;;;;;;;;5014457;28;20478;-71
2023/01/16 03:33:20;;;;;;;9.43;2.03;;;;;;;;;;5015422;28;20032;-71
2023/01/16 03:35:55;;;;;;;9.90;2.13;;;;;;;;;;5015016;28;20036;-71
2023/01/16 03:38:22;;;;;;;6.18;2.10;;;;;;;;;;5015142;28;20022;-70
2023/01/16 03:40:49;;;;;;;8.68;1.70;;;;;;;;;;5015022;28;20022;-70
2023/01/16 03:43:28;;;;;;;9.07;2.00;;;;;;;;;;5015003;28;20025;-71
2023/01/16 03:46:06;;;;;;;10.05;2.13;;;;;;;;;;5014810;28;20026;-71
2023/01/16 03:48:35;;;;;;;9.60;1.90;;;;;;;;;;5015172;28;20022;-71
2023/01/16 03:51:05;;;;;;;7.13;1.85;;;;;;;;;;5014633;28;20038;-72
2023/01/16 03:53:34;;;;;;;7.40;1.50;;;;;;;;;;5032318;28;20098;-71
2023/01/16 03:56:00;;;;;;;15.85;1.92;;;;;;;;;;5034342;28;20039;-71
2023/01/16 03:58:35;;;;;;;7.55;1.80;;;;;;;;;;5034514;28;20041;-71
2023/01/16 04:01:23;;;;;;;13.98;2.30;;;;;;;;;;5033977;28;20022;-71
2023/01/16 04:04:08;;;;;;;9.82;1.92;;;;;;;;;;5034333;28;20033;-71
2023/01/16 04:06:45;;;;;;;8.13;2.13;;;;;;;;;;5034424;28;20036;-71
2023/01/16 04:09:17;;;;;;;7.35;1.65;;;;;;;;;;5034419;28;20048;-71
2023/01/16 04:11:44;;;;;;;9.63;1.92;;;;;;;;;;5034200;28;20405;-71
2023/01/16 04:14:12;;;;;;;6.65;1.92;;;;;;;;;;5034047;28;20039;-71
2023/01/16 04:16:39;;;;;;;10.65;2.47;;;;;;;;;;5033066;28;20036;-71
2023/01/16 04:19:06;;;;;;;6.90;2.17;;;;;;;;;;5034223;28;20020;-71
2023/01/16 04:21:32;;;;;;;6.22;1.60;;;;;;;;;;5034373;28;20099;-71
2023/01/16 04:23:59;;;;;;;11.02;2.17;;;;;;;;;;5034337;28;20022;-71
2023/01/16 04:26:26;;;;;;;9.25;1.98;;;;;;;;;;5033965;28;20025;-71
2023/01/16 04:28:54;;;;;;;10.25;2.47;;;;;;;;;;5033749;28;20083;-71
2023/01/16 04:31:24;;;;;;;12.20;2.95;;;;;;;;;;5033795;28;20123;-71
2023/01/16 04:33:51;;;;;;;13.48;2.55;;;;;;;;;;5033838;28;20024;-71
2023/01/16 04:36:17;;;;;;;10.43;1.42;;;;;;;;;;5033496;28;20033;-71
2023/01/16 04:38:43;;;;;;;20.08;1.50;;;;;;;;;;5033595;28;20036;-72
2023/01/16 04:41:10;;;;;;;9.30;1.77;;;;;;;;;;5033214;28;20021;-72
2023/01/16 04:43:36;;;;;;;12.70;2.08;;;;;;;;;;5033142;28;20025;-72
2023/01/16 04:46:02;;;;;;;11.23;2.08;;;;;;;;;;5033665;28;20025;-72
2023/01/16 04:48:28;;;;;;;10.20;2.00;;;;;;;;;;5033456;28;20072;-72
2023/01/16 04:50:55;;;;;;;15.32;1.83;;;;;;;;;;5033459;28;20064;-72
2023/01/16 04:53:21;;;;;;;13.55;1.83;;;;;;;;;;5033346;28;20028;-72
2023/01/16 04:55:47;;;;;;;8.82;1.05;;;;;;;;;;5033711;28;20029;-72
2023/01/16 04:58:14;;;;;;;4.15;0.85;;;;;;;;;;5033284;28;20071;-73
2023/01/16 05:00:40;;;;;;;10.82;1.50;;;;;;;;;;5033253;28;20022;-73
2023/01/16 05:03:06;;;;;;;6.05;0.90;;;;;;;;;;5032003;28;20022;-72
2023/01/16 05:05:32;;;;;;;3.92;1.08;;;;;;;;;;5033054;28;20432;-72
2023/01/16 05:08:17;;;;;;;3.50;1.10;;;;;;;;;;5033093;28;20478;-73
2023/01/16 05:10:43;;;;;;;4.10;1.10;;;;;;;;;;5013608;28;20018;-72
2023/01/16 05:13:10;;;;;;;4.82;0.93;;;;;;;;;;5013166;28;20025;-72
2023/01/16 05:15:36;;;;;;;6.93;1.27;;;;;;;;;;5013436;28;20060;-72
2023/01/16 05:18:02;;;;;;;5.60;1.02;;;;;;;;;;5013234;28;20044;-72
2023/01/16 05:20:29;;;;;;;3.63;0.80;;;;;;;;;;5013174;28;20032;-72
2023/01/16 05:22:55;;;;;;;4.68;0.80;;;;;;;;;;5012999;28;20038;-72
2023/01/16 05:25:21;;;;;;;2.88;1.42;;;;;;;;;;5013130;28;20022;-72
2023/01/16 05:27:51;;;;;;;7.70;1.05;;;;;;;;;;5044555;28;20033;-72
2023/01/16 05:30:17;;;;;;;4.13;1.00;;;;;;;;;;5044952;28;20028;-72
2023/01/16 05:32:44;;;;;;;6.20;0.80;;;;;;;;;;5013184;28;20018;-72
2023/01/16 05:35:11;;;;;;;3.63;0.90;;;;;;;;;;5012953;28;20513;-72
2023/01/16 05:37:37;;;;;;;4.63;1.00;;;;;;;;;;5012533;28;20040;-72
2023/01/16 05:40:03;;;;;;;4.93;0.90;;;;;;;;;;5012923;28;20033;-72
2023/01/16 05:42:30;;;;;;;2.70;1.00;;;;;;;;;;5012495;28;20033;-72
2023/01/16 05:44:56;;;;;;;4.97;1.30;;;;;;;;;;5013027;28;20017;-72
2023/01/16 05:47:22;;;;;;;4.03;0.90;;;;;;;;;;5012616;28;20536;-72
2023/01/16 05:49:49;;;;;;;7.43;1.30;;;;;;;;;;5012576;28;20034;-72
2023/01/16 05:52:15;;;;;;;4.25;1.02;;;;;;;;;;5018986;28;20055;-72
2023/01/16 05:54:41;;;;;;;4.15;1.38;;;;;;;;;;5032524;28;20044;-72
2023/01/16 05:57:08;;;;;;;3.58;1.70;;;;;;;;;;5031963;28;20038;-72
2023/01/16 05:59:34;;;;;;;6.47;1.40;;;;;;;;;;5032200;28;20027;-72
2023/01/16 06:02:00;;;;;;;6.05;2.38;;;;;;;;;;5032052;28;20028;-72
2023/01/16 06:04:27;;;;;;;6.10;1.77;;;;;;;;;;5032563;28;20032;-72
2023/01/16 06:06:54;;;;;;;5.10;3.35;;;;;;;;;;5032075;28;20021;-73
2023/01/16 06:09:20;;;;;;;3.40;1.80;;;;;;;;;;5032293;28;20029;-71
2023/01/16 06:11:46;;;;;;;8.93;1.60;;;;;;;;;;5031877;28;20025;-72
2023/01/16 06:14:13;;;;;;;6.30;2.15;;;;;;;;;;5031968;28;20025;-72
2023/01/16 06:16:39;;;;;;;5.35;1.88;;;;;;;;;;5032029;28;20039;-72
2023/01/16 06:19:05;;;;;;;5.57;1.75;;;;;;;;;;5032097;28;20024;-72
2023/01/16 06:21:31;;;;;;;6.22;1.65;;;;;;;;;;5032237;28;20033;-73
2023/01/16 06:23:58;;;;;;;7.32;1.92;;;;;;;;;;5031951;28;20026;-73
2023/01/16 06:26:24;;;;;;;3.33;1.90;;;;;;;;;;5031754;28;20029;-73
2023/01/16 06:28:50;;;;;;;5.70;2.97;;;;;;;;;;5032197;28;20025;-72
2023/01/16 06:31:17;;;;;;;4.85;2.03;;;;;;;;;;5032015;28;20486;-72
2023/01/16 06:33:43;;;;;;;4.28;2.05;;;;;;;;;;5032179;28;20036;-72
2023/01/16 06:36:09;;;;;;;3.35;2.03;;;;;;;;;;5032020;28;20034;-72
2023/01/16 06:38:36;;;;;;;5.07;2.13;;;;;;;;;;5032167;28;20068;-72
2023/01/16 06:41:02;;;;;;;4.97;2.08;;;;;;;;;;5031361;28;20040;-72
2023/01/16 06:43:28;;;;;;;3.50;2.15;;;;;;;;;;5031755;28;20028;-72
2023/01/16 06:45:55;;;;;;;5.28;2.17;;;;;;;;;;5032047;28;20583;-72
2023/01/16 06:48:21;;;;;;;6.43;2.13;;;;;;;;;;5031379;28;20063;-72
2023/01/16 06:50:48;;;;;;;3.47;1.70;;;;;;;;;;5031625;28;20041;-72
2023/01/16 06:53:14;;;;;;;6.57;4.32;;;;;;;;;;5031522;28;20033;-73
2023/01/16 06:55:41;;;;;;;7.68;5.20;;;;;;;;;;5031039;28;20033;-72
2023/01/16 06:58:08;;;;;;;18.75;6.70;;;;;;;;;;5031604;28;20036;-73
2023/01/16 07:00:36;;;;;;;17.83;8.10;;;;;;;;;;5031563;28;20028;-72
2023/01/16 07:03:03;;;;;;;16.88;8.85;;;;;;;;;;5032744;28;20028;-71
2023/01/16 07:05:30;;;;;;;16.85;10.13;;;;;;;;;;5035601;28;20018;-71
2023/01/16 07:07:56;;;;;;;17.85;11.30;;;;;;;;;;5035434;28;20026;-72
2023/01/16 07:10:23;;;;;;;17.13;10.27;;;;;;;;;;5031123;28;20490;-71
2023/01/16 07:12:50;;;;;;;12.77;7.55;;;;;;;;;;5034008;28;20033;-71
2023/01/16 07:23:36;;;;;;;11.43;4.05;;;;;;;;;;5017708;28;20037;-72
2023/01/16 07:26:04;;;;;;;6.63;4.30;;;;;;;;;;5034167;28;20367;-72
2023/01/16 07:28:30;;;;;;;6.35;3.45;;;;;;;;;;5034698;28;20029;-72
2023/01/16 07:30:57;;;;;;;9.73;3.60;;;;;;;;;;5034243;28;20025;-72
2023/01/16 07:33:24;;;;;;;7.30;3.00;;;;;;;;;;5034279;28;20025;-73
2023/01/16 07:35:50;;;;;;;9.90;4.65;;;;;;;;;;5034699;28;20037;-71
2023/01/16 07:38:16;;;;;;;10.70;5.82;;;;;;;;;;5031494;28;20530;-73
2023/01/16 07:40:43;;;;;;;8.32;4.10;;;;;;;;;;5033349;28;20025;-73
2023/01/16 07:43:09;;;;;;;11.35;7.25;;;;;;;;;;5028566;28;20405;-72
2023/01/16 07:45:35;;;;;;;7.88;4.65;;;;;;;;;;5033480;28;20036;-73
2023/01/16 07:48:02;;;;;;;10.75;6.60;;;;;;;;;;5023289;28;20056;-73
2023/01/16 07:50:29;;;;;;;12.55;7.57;;;;;;;;;;5028698;28;20385;-72
2023/01/16 07:52:55;;;;;;;11.20;6.88;;;;;;;;;;5033536;28;20049;-72
2023/01/16 07:55:22;;;;;;;14.18;8.73;;;;;;;;;;5040340;28;20033;-72
2023/01/16 07:57:49;;;;;;;8.48;5.50;;;;;;;;;;5031575;28;20089;-71
2023/01/16 08:00:16;;;;;;;19.55;13.77;;;;;;;;;;5036108;28;20033;-72
2023/01/16 08:02:43;;;;;;;18.23;11.98;;;;;;;;;;5041306;28;20014;-72
2023/01/16 08:05:10;;;;;;;23.92;15.27;;;;;;;;;;5034188;28;20501;-71
2023/01/16 08:07:36;;;;;;;15.32;10.18;;;;;;;;;;5033671;28;20030;-73
2023/01/16 08:10:03;;;;;;;12.48;9.02;;;;;;;;;;5033582;28;20021;-73
2023/01/16 08:12:29;;;;;;;6.80;3.90;;;;;;;;;;5036075;28;20142;-73
2023/01/16 08:14:55;;;;;;;8.10;6.22;;;;;;;;;;5032087;28;20017;-72
2023/01/16 08:17:22;;;;;;;5.15;3.42;;;;;;;;;;5034164;28;20423;-72
2023/01/16 08:19:48;;;;;;;5.53;3.90;;;;;;;;;;5039119;28;20024;-72
2023/01/16 08:22:14;;;;;;;10.15;6.10;;;;;;;;;;5033292;28;20025;-72
2023/01/16 08:24:41;;;;;;;17.17;10.45;;;;;;;;;;5033737;28;20030;-72
2023/01/16 08:27:07;;;;;;;13.05;9.77;;;;;;;;;;5033486;28;20384;-72
2023/01/16 08:29:33;;;;;;;13.95;9.90;;;;;;;;;;5033536;28;20026;-72
2023/01/16 08:31:59;;;;;;;8.25;5.85;;;;;;;;;;5033282;28;20021;-72
2023/01/16 08:34:27;;;;;;;7.18;4.80;;;;;;;;;;5033670;28;20021;-72
2023/01/16 08:36:53;;;;;;;5.40;4.20;;;;;;;;;;5032670;28;20055;-72
2023/01/16 08:39:19;;;;;;;7.43;5.00;;;;;;;;;;5033723;28;20025;-72
2023/01/16 08:52:50;;;;;;;3.95;3.03;;;;;;;;;;5032425;28;20049;-72
2023/01/16 08:55:16;;;;;;;4.32;3.42;;;;;;;;;;5041875;28;20028;-72
2023/01/16 08:57:45;;;;;;;4.68;2.65;;;;;;;;;;5041366;28;20044;-72
2023/01/16 09:00:11;;;;;;;3.97;2.47;;;;;;;;;;5043114;28;20029;-72
2023/01/16 09:02:38;;;;;;;1.95;1.73;;;;;;;;;;5041587;28;20051;-72
2023/01/16 09:05:05;;;;;;;2.53;1.80;;;;;;;;;;5043399;28;20017;-72
2023/01/16 09:07:31;;;;;;;2.53;1.70;;;;;;;;;;5042164;28;20017;-72
2023/01/16 09:09:57;;;;;;;2.30;1.60;;;;;;;;;;5041864;28;20029;-73
2023/01/16 09:15:09;;;;;;;5.75;3.90;;;;;;;;;;5042068;28;20030;-70
2023/01/16 09:17:35;;;;;;;6.72;3.80;;;;;;;;;;5041479;28;20029;-71
2023/01/16 09:20:02;;;;;;;6.95;4.97;;;;;;;;;;5042825;28;20021;-72
2023/01/16 09:22:28;;;;;;;2.22;1.75;;;;;;;;;;5050448;28;20029;-72
2023/01/16 09:24:54;;;;;;;3.08;1.58;;;;;;;;;;5017574;28;20025;-73
2023/01/16 09:27:22;;;;;;;4.38;2.28;;;;;;;;;;5031204;28;20059;-73
2023/01/16 09:29:49;;;;;;;3.33;2.53;;;;;;;;;;5032722;28;20032;-72
2023/01/16 09:32:16;;;;;;;7.93;1.75;;;;;;;;;;5031488;28;20052;-73
2023/01/16 09:34:43;;;;;;;2.20;1.33;;;;;;;;;;5031351;28;20424;-72
2023/01/16 09:37:09;;;;;;;3.85;1.55;;;;;;;;;;5031320;28;20032;-73
2023/01/16 09:39:36;;;;;;;7.22;4.63;;;;;;;;;;5028193;28;20027;-72
2023/01/16 09:45:28;;;;;;;3.67;2.60;;;;;;;;;;5026038;28;20021;-72
2023/01/16 09:47:57;;;;;;;4.80;2.78;;;;;;;;;;4979855;28;20042;-73
2023/01/16 09:50:32;;;;;;;2.17;1.85;;;;;;;;;;4981524;28;20042;-72
2023/01/16 09:58:36;;;;;;;4.45;3.05;;;;;;;;;;4990003;28;20038;-72
2023/01/16 10:01:14;;;;;;;4.40;3.38;;;;;;;;;;4989855;28;20030;-72
2023/01/16 10:03:43;;;;;;;3.97;2.78;;;;;;;;;;4990049;28;20617;-73
2023/01/16 10:06:15;;;;;;;3.22;2.40;;;;;;;;;;4990453;28;20032;-72
2023/01/16 10:08:42;;;;;;;2.28;1.63;;;;;;;;;;4991305;28;20044;-72
2023/01/16 10:11:16;;;;;;;2.95;1.85;;;;;;;;;;4990242;28;20569;-72
2023/01/16 10:14:01;;;;;;;2.67;1.85;;;;;;;;;;4990149;28;20495;-72
2023/01/16 10:16:30;;;;;;;2.72;1.17;;;;;;;;;;4989962;28;20054;-73
2023/01/16 10:19:09;;;;;;;1.73;1.30;;;;;;;;;;4989734;28;20102;-72
2023/01/16 10:21:42;;;;;;;1.88;1.20;;;;;;;;;;4989591;28;20036;-72
2023/01/16 10:24:14;;;;;;;1.92;1.40;;;;;;;;;;5007545;28;20038;-72
2023/01/16 10:26:49;;;;;;;5.85;3.25;;;;;;;;;;5012088;28;20075;-73
2023/01/16 10:29:19;;;;;;;5.10;2.95;;;;;;;;;;5012330;28;20076;-73
2023/01/16 10:31:48;;;;;;;4.78;3.63;;;;;;;;;;5011704;28;20028;-71
2023/01/16 10:34:21;;;;;;;3.17;1.80;;;;;;;;;;5015095;28;20032;-72
2023/01/16 10:36:50;;;;;;;5.28;2.65;;;;;;;;;;5018005;28;20059;-72
2023/01/16 10:39:17;;;;;;;4.95;3.05;;;;;;;;;;5030318;28;20381;-72
2023/01/16 10:50:18;;;;;;;7.45;3.90;;;;;;;;;;5046735;28;20396;-73
2023/01/16 10:52:46;;;;;;;7.40;3.70;;;;;;;;;;5037732;28;20507;-71
2023/01/16 10:55:13;;;;;;;14.88;5.70;;;;;;;;;;5046788;28;20374;-71
2023/01/16 10:57:45;;;;;;;9.13;3.83;;;;;;;;;;5049220;28;20037;-71
2023/01/16 11:00:16;;;;;;;24.00;6.60;;;;;;;;;;5040897;28;20485;-71
2023/01/16 11:02:43;;;;;;;8.95;2.17;;;;;;;;;;5050362;28;20033;-71
2023/01/16 11:05:42;;;;;;;7.25;1.80;;;;;;;;;;5035251;28;20048;-71
2023/01/16 11:08:12;;;;;;;5.40;1.98;;;;;;;;;;5032706;28;20038;-71
2023/01/16 11:10:40;;;;;;;8.25;3.22;;;;;;;;;;5032871;28;20041;-72
2023/01/16 11:18:28;;;;;;;;;;;;;;;;;;5033089;28;20040;-72
2023/01/16 11:18:52;;;;;;;2.72;1.35;;;;;;;;;;5032781;28;19956;-72
2023/01/16 11:21:29;;;;;;;5.60;1.70;;;;;;;;;;5033122;28;20037;-72
2023/01/16 11:24:00;;;;;;;4.90;2.20;;;;;;;;;;5032790;28;20034;-72
2023/01/16 11:26:27;;;;;;;5.78;1.83;;;;;;;;;;5032515;28;20026;-72
2023/01/16 11:28:54;;;;;;;9.60;3.67;;;;;;;;;;5032631;28;20028;-72
2023/01/16 11:31:23;;;;;;;9.63;2.08;;;;;;;;;;5029540;28;20457;-72
2023/01/16 11:34:00;;;;;;;6.57;2.65;;;;;;;;;;5019279;28;20503;-72
2023/01/16 11:36:28;;;;;;;7.50;2.78;;;;;;;;;;5032552;28;20046;-72
2023/01/16 11:38:54;;;;;;;9.35;2.30;;;;;;;;;;5032612;28;20022;-72
2023/01/16 11:41:24;;;;;;;12.18;2.22;;;;;;;;;;5032537;28;20437;-72
2023/01/16 11:46:57;;;;;;;8.98;2.60;;;;;;;;;;5012260;28;20033;-70
2023/01/16 11:49:45;;;;;;;13.98;3.35;;;;;;;;;;5011356;28;20507;-69
2023/01/16 11:52:26;;;;;;;8.38;1.80;;;;;;;;;;5012112;28;20048;-70
2023/01/16 11:55:00;;;;;;;7.90;1.90;;;;;;;;;;5012451;28;20055;-71
2023/01/16 11:57:52;;;;;;;7.18;2.40;;;;;;;;;;5012409;28;20422;-71
2023/01/16 12:00:38;;;;;;;12.77;3.08;;;;;;;;;;5009416;28;20037;-71
2023/01/16 12:03:04;;;;;;;8.25;2.80;;;;;;;;;;5012360;28;20038;-72
2023/01/16 12:05:54;;;;;;;8.70;1.88;;;;;;;;;;5012397;28;20087;-72
2023/01/16 12:08:21;;;;;;;17.77;3.17;;;;;;;;;;5012278;28;20034;-72
2023/01/16 12:10:50;;;;;;;19.10;4.47;;;;;;;;;;5012141;28;20509;-72
2023/01/16 12:16:05;;;;;;;20.00;3.33;;;;;;;;;;5012216;28;20048;-71
2023/01/16 12:18:52;;;;;;;11.77;3.42;;;;;;;;;;5011951;28;20477;-72
2023/01/16 12:21:21;;;;;;;18.98;3.28;;;;;;;;;;4992785;28;20041;-71
2023/01/16 12:23:50;;;;;;;15.73;3.20;;;;;;;;;;5001379;28;20045;-71
2023/01/16 12:26:22;;;;;;;13.18;3.10;;;;;;;;;;5011753;28;20409;-72
2023/01/16 12:29:06;;;;;;;15.38;3.53;;;;;;;;;;5011478;28;20025;-71
2023/01/16 12:31:48;;;;;;;9.20;1.80;;;;;;;;;;5011578;28;20030;-72
2023/01/16 12:34:29;;;;;;;4.40;0.60;;;;;;;;;;5008510;28;20040;-71
2023/01/16 12:36:55;;;;;;;;;;;;;;;;;;5013347;28;20031;-71
2023/01/16 12:39:23;;;;;;;;;;;;;;;;;;5000959;28;19909;-72
2023/01/16 12:44:34;;;;;;;;;;;;;;;;;;5011892;28;19913;-72
2023/01/16 12:47:01;;;;;;;;;;;;;;;;;;5007893;28;19906;-71
2023/01/16 12:49:27;;;;;;;;;;;;;;;;;;5008660;28;19909;-72
2023/01/16 12:51:53;;;;;;;;;;;;;;;;;;5011418;28;19925;-72
2023/01/16 12:54:19;;;;;;;;;;;;;;;;;;5011308;28;19910;-72
2023/01/16 12:56:46;;;;;;;;;;;;;;;;;;5011325;28;19920;-72
2023/01/16 12:59:12;;;;;;;;;;;;;;;;;;5029960;28;19913;-72
2023/01/16 13:01:38;;;;;;;;;;;;;;;;;;5027240;28;19909;-72
2023/01/16 13:04:04;;;;;;;;;;;;;;;;;;5024411;28;19911;-72
2023/01/16 13:06:30;;;;;;;;;;;;;;;;;;5032055;28;19905;-71
2023/01/16 13:09:04;;;;;;;;;;;;;;;;;;5026520;28;19913;-71
2023/01/16 13:14:15;;;;;;;;;;;;;;;;;;5033504;28;20300;-71
2023/01/16 13:16:41;;;;;;;;;;;;;;;;;;5033292;28;20358;-71
2023/01/16 13:19:07;;;;;;;;;;;;;;;;;;5040600;28;19905;-71
2023/01/16 13:21:34;;;;;;;;;;;;;;;;;;5033118;28;19915;-71
2023/01/16 13:24:00;;;;;;;;;;;;;;;;;;5030456;28;20269;-72
2023/01/16 13:26:26;;;;;;;;;;;;;;;;;;5032117;28;19927;-71
2023/01/16 13:28:52;;;;;;;;;;;;;;;;;;5026180;28;20293;-71
2023/01/16 13:31:18;;;;;;;;;;;;;;;;;;5020834;28;19913;-71
2023/01/16 13:33:45;;;;;;;;;;;;;;;;;;5013531;28;19909;-71
2023/01/16 13:36:11;;;;;;;;;;;;;;;;;;5030390;28;20370;-71
2023/01/16 13:38:38;;;;;;;;;;;;;;;;;;5032712;28;20370;-71
2023/01/16 13:41:07;;;;;;;;;;;;;;;;;;5032362;28;19978;-72
2023/01/16 13:46:18;;;;;;;;;;;;;;;;;;5031006;28;19928;-71
2023/01/16 13:48:44;;;;;;;;;;;;;;;;;;5032374;28;19935;-71
2023/01/16 13:51:11;;;;;;;;;;;;;;;;;;5031439;28;19925;-71
2023/01/16 13:53:37;;;;;;;;;;;;;;;;;;5032162;28;19954;-69
2023/01/16 13:56:04;;;;;;;;;;;;;;;;;;5042746;28;19922;-71
2023/01/16 13:58:31;;;;;;;;;;;;;;;;;;5052310;28;20284;-71
2023/01/16 14:00:57;;;;;;;;;;;;;;;;;;5051991;28;19934;-71
2023/01/16 14:03:24;;;;;;;;;;;;;;;;;;5051709;28;19911;-71
2023/01/16 14:05:50;;;;;;;;;;;;;;;;;;5034009;28;19905;-71
2023/01/16 14:11:01;;;;;;;;;;;;;;;;;;5031577;28;19909;-71
2023/01/16 14:13:28;;;;;;;;;;;;;;;;;;5023656;28;19915;-71
2023/01/16 14:18:38;;;;;;;;;;;;;;;;;;5012311;28;20358;-71
2023/01/16 14:21:05;;;;;;;;;;;;;;;;;;5012878;28;19909;-71
2023/01/16 14:26:16;;;;;;;;;;;;;;;;;;5047592;28;19917;-70
2023/01/16 14:28:45;;;;;;;;;;;;;;;;;;5031935;28;19927;-71
2023/01/16 14:31:12;;;;;;;;;;;;;;;;;;5032424;28;19911;-71
2023/01/16 14:33:38;;;;;;;;;;;;;;;;;;5030223;28;19927;-71
2023/01/16 14:36:04;;;;;;;;;;;;;;;;;;5030704;28;19913;-71
2023/01/16 14:38:33;;;;;;;;;;;;;;;;;;5031542;28;19962;-71
2023/01/16 14:57:28;;;;;;;;;;;;;;;;;;5031511;28;19939;-72
2023/01/16 14:59:54;;;;;;;;;;;;;;;;;;5023805;28;19909;-71
2023/01/16 15:02:20;;;;;;;;;;;;;;;;;;5011785;28;19986;-72
2023/01/16 15:04:46;;;;;;;;;;;;;;;;;;5012042;28;19909;-72
2023/01/16 15:07:13;;;;;;;;;;;;;;;;;;5011903;28;19905;-72
2023/01/16 15:09:40;;;;;;;;;;;;;;;;;;5024747;28;19915;-72
2023/01/16 15:12:06;;;;;;;;;;;;;;;;;;5031580;28;19912;-71
2023/01/16 15:14:33;;;;;;;;;;;;;;;;;;5030293;28;19915;-71
2023/01/16 15:22:29;;;;;;;;;;;;;;;;;;5031193;28;19911;-72
2023/01/16 15:24:55;;;;;;;;;;;;;;;;;;5034013;28;20358;-73
2023/01/16 15:27:21;;;;;;;;;;;;;;;;;;5033756;28;19905;-72
2023/01/16 15:29:48;;;;;;;;;;;;;;;;;;5028517;28;19909;-72
2023/01/16 15:32:21;;;;;;;;;;;;;;;;;;5023797;28;19905;-72
2023/01/16 15:34:47;;;;;;;;;;;;;;;;;;5028984;28;20362;-72
2023/01/16 15:37:14;;;;;;;;;;;;;;;;;;5034816;28;19917;-72
2023/01/16 15:39:42;;;;;;;;;;;;;;;;;;5034849;28;19909;-72
2023/01/16 15:47:39;;;;;;;;;;;;;;;;;;5032700;28;19905;-72
2023/01/16 15:50:05;;;;;;;;;;;;;;;;;;5034402;28;19915;-73
2023/01/16 15:52:32;;;;;;;;;;;;;;;;;;5034566;28;19916;-72
2023/01/16 15:54:58;;;;;;;;;;;;;;;;;;5034454;28;19909;-71
2023/01/16 15:57:24;;;;;;;;;;;;;;;;;;5035944;28;19917;-72
2023/01/16 15:59:50;;;;;;;;;;;;;;;;;;5063614;28;19905;-72
2023/01/16 16:02:17;;;;;;;;;;;;;;;;;;5030622;28;19915;-70
2023/01/16 16:04:43;;;;;;;;;;;;;;;;;;5034292;28;19919;-71
2023/01/16 16:07:09;;;;;;;;;;;;;;;;;;5033908;28;19905;-71
2023/01/16 16:09:35;;;;;;;;;;;;;;;;;;5033911;28;19915;-72
2023/01/16 16:12:04;;;;;;;;;;;;;;;;;;5034219;28;19974;-72
2023/01/16 16:20:00;;;;;;;;;;;;;;;;;;5034174;28;20355;-72
2023/01/16 16:25:14;;;;;;;;;;;;;;;;;;5033665;28;19912;-73
2023/01/16 16:27:40;;;;;;;;;;;;;;;;;;5033363;28;19912;-72
2023/01/16 16:30:06;;;;;;;;;;;;;;;;;;5033630;28;20258;-72
2023/01/16 16:32:32;;;;;;;;;;;;;;;;;;5034574;28;19927;-72
2023/01/16 16:34:58;;;;;;;;;;;;;;;;;;5032624;28;20266;-72
2023/01/16 16:37:25;;;;;;;;;;;;;;;;;;5065626;28;19913;-72
2023/01/16 16:39:51;;;;;;;;;;;;;;;;;;5034464;28;19905;-72
2023/01/16 16:42:26;;;;;;;;;;;;;;;;;;5034003;28;19905;-72
2023/01/16 16:44:52;;;;;;;;;;;;;;;;;;5033830;28;19911;-72
2023/01/16 16:47:18;;;;;;;;;;;;;;;;;;5033182;28;19927;-72
2023/01/16 16:49:45;;;;;;;;;;;;;;;;;;5032527;28;19937;-73
2023/01/16 16:52:39;;;;;;;;;;;;;;;;;;5033484;28;20036;-72
2023/01/16 16:55:06;;;;;;;;;;;;;;;;;;5032595;28;19913;-72
2023/01/16 16:57:33;;;;;;;;;;;;;;;;;;5033469;28;19935;-71